Rawlins, WY (82301)

9:42 AM MDT on September 04, 2015 (GMT -0600)
Highland Towne | | Change Station
CLOSE
Current Station
Personal Weather Station
Location: Rawlins, WY
Elevation: 6831 ft
Nearby Weather Stations

Elev 6831 ft 41.82 °N, 107.22 °W | Updated 7 minutes ago

Clear
Clear
75.2 °F
Feels Like 77 °F
N
5.3
Wind Variable Wind from NE

Today
High -- | Low -- °F
--% Chance of Precip.
Yesterday
High -- | Low -- °F
Precip. -- in
6:37 AM 7:37 PM
Waning Gibbous, 58% visible
Pressure 29.81 in
Visibility 10.0 miles
Clouds Clear
Heat Index 77 °F
Dew Point 41 °F
Humidity 29%
Rainfall 0.00 in
Snow Depth Not available.
UV 2 out of 12
Pollen 8.20 out of 12
Air Quality Not available.
Flu Activity Not available.
METAR KRWL 041453Z AUTO 20014KT 10SM CLR 20/04 A3008 RMK AO2 SLP095 T02000044 51006
Pressure 29.81 in
Visibility 10.0 miles
Clouds Clear
Heat Index 77 °F
Dew Point 41 °F
Humidity 29%
Rainfall 0.00 in
Snow Depth Not available.
UV 2 out of 12
Pollen 8.20 out of 12
Air Quality Not available.
Flu Activity Not available.
METAR KRWL 041453Z AUTO 20014KT 10SM CLR 20/04 A3008 RMK AO2 SLP095 T02000044 51006

10-Day Weather Forecast

×

Almanac

Astronomy

Sep. 04, 2015 Rise Set
Actual Time
Civil Twilight
Nautical Twilight
Astronomical Twilight
Moon
Length of Visible Light
Length of Day
Tomorrow will be .
, % of the Moon is Illuminated

Today's Extremes

State Highs State Lows

Community

WunderPhotos

Upload Photos

1,852,197 photos uploaded!

WunderBlogs® & News

Nearby

Air Quality

  Air Quality AQ Index Pollutant
Not available.

Snow Depth

Station Depth Elevation

Earthquake Activity

City Distance Mag. Time & Date
Minimum magnitude displayed is 2.5.

Coastal Water Temperatures

Place Temperature

Stations

Nearby Weather Stations

Station Location Temp. Windchill Dew Point Humidity Wind Precip. Elev Updated Type